createdAt,value
2022-12-18T01:00:17.873Z,-6.17
2022-12-18T01:03:19.097Z,-6.15
2022-12-18T01:06:42.819Z,-6.13
2022-12-18T01:10:12.808Z,-6.12
2022-12-18T01:14:10.326Z,-6.08
2022-12-18T01:17:46.127Z,-6.05
2022-12-18T01:20:36.879Z,-6.04
2022-12-18T01:23:49.188Z,-6.04
2022-12-18T01:30:15.463Z,-6.06
2022-12-18T01:40:02.605Z,-6.02
2022-12-18T01:42:57.403Z,-6.01
2022-12-18T01:46:30.675Z,-6.03
2022-12-18T01:49:47.626Z,-6.00
2022-12-18T01:53:41.896Z,-5.95
2022-12-18T01:56:56.476Z,-5.93
2022-12-18T02:00:11.653Z,-5.93
2022-12-18T02:03:13.065Z,-5.93
2022-12-18T02:06:34.605Z,-5.93
2022-12-18T02:09:45.078Z,-5.93
2022-12-18T02:15:43.517Z,-5.94
2022-12-18T02:18:27.438Z,-5.93
2022-12-18T02:25:50.994Z,-5.89
2022-12-18T02:29:58.015Z,-5.87
2022-12-18T02:38:42.690Z,-5.85
2022-12-18T03:00:07.509Z,-5.77
2022-12-18T03:01:25.618Z,-5.80
2022-12-18T03:10:30.834Z,-5.79
2022-12-18T03:23:18.067Z,-5.76
2022-12-18T03:26:41.432Z,-5.80
2022-12-18T04:11:06.084Z,-5.92
2022-12-18T04:13:37.564Z,-5.91
2022-12-18T04:24:24.364Z,-5.96
2022-12-18T04:31:13.122Z,-6.00
2022-12-18T04:38:41.145Z,-5.97
2022-12-18T04:45:00.113Z,-6.04
2022-12-18T04:48:33.689Z,-6.09
2022-12-18T04:55:29.184Z,-6.27
2022-12-18T04:58:12.372Z,-6.35
2022-12-18T05:00:41.825Z,-6.46
2022-12-18T05:03:10.083Z,-6.53
2022-12-18T05:05:39.363Z,-6.59
2022-12-18T05:08:07.833Z,-6.61
2022-12-18T05:10:38.279Z,-6.60
2022-12-18T05:13:06.417Z,-6.58
2022-12-18T05:15:34.843Z,-6.56
2022-12-18T05:18:04.529Z,-6.60
2022-12-18T05:20:33.387Z,-6.64
2022-12-18T05:23:08.570Z,-6.67
2022-12-18T05:26:03.233Z,-6.68
2022-12-18T05:28:44.861Z,-6.67
2022-12-18T05:31:25.578Z,-6.65
2022-12-18T05:33:59.709Z,-6.63
2022-12-18T05:36:29.400Z,-6.62
2022-12-18T05:47:11.468Z,-6.57
2022-12-18T05:50:52.450Z,-6.59
2022-12-18T06:01:31.692Z,-6.61
2022-12-18T06:11:20.870Z,-6.61
2022-12-18T06:40:16.536Z,-6.64
2022-12-18T06:50:14.705Z,-6.44
2022-12-18T06:52:48.022Z,-6.46
2022-12-18T07:38:19.347Z,-6.29
2022-12-18T07:42:23.596Z,-6.27
2022-12-18T07:52:24.321Z,-6.20
2022-12-18T07:54:52.915Z,-6.15
2022-12-18T08:02:43.397Z,-6.13
2022-12-18T09:13:10.925Z,-5.43
2022-12-18T09:41:17.036Z,-5.52
2022-12-18T09:45:08.171Z,-5.47
2022-12-18T11:33:00.689Z,-4.86
2022-12-18T12:27:46.039Z,-4.35
2022-12-18T12:53:55.319Z,-4.44
2022-12-18T12:56:32.164Z,-4.50
2022-12-18T12:59:17.869Z,-4.57
2022-12-18T13:02:13.309Z,-4.65
2022-12-18T13:04:58.844Z,-4.68
2022-12-18T13:13:23.706Z,-4.68
2022-12-18T13:16:09.995Z,-4.70
2022-12-18T13:18:52.737Z,-4.76
2022-12-18T13:21:29.581Z,-4.79
2022-12-18T13:24:20.825Z,-4.77
2022-12-18T13:26:50.776Z,-4.76
2022-12-18T13:29:39.622Z,-4.78
2022-12-18T13:32:47.862Z,-4.79
2022-12-18T13:35:23.829Z,-4.80
2022-12-18T13:37:54.398Z,-4.80
2022-12-18T13:40:46.424Z,-4.83
2022-12-18T13:43:21.220Z,-4.86
2022-12-18T13:45:51.744Z,-4.87
2022-12-18T13:48:27.154Z,-4.86
2022-12-18T13:51:05.144Z,-4.85
2022-12-18T13:53:40.831Z,-4.88
2022-12-18T13:56:10.589Z,-4.92
2022-12-18T13:58:39.966Z,-4.93
2022-12-18T14:01:24.484Z,-4.92
2022-12-18T14:04:11.056Z,-4.92
2022-12-18T14:06:40.948Z,-4.96
2022-12-18T14:09:20.333Z,-5.00
2022-12-18T14:11:52.754Z,-5.05
2022-12-18T14:14:29.441Z,-5.11
2022-12-18T14:17:03.158Z,-5.14
2022-12-18T14:19:33.269Z,-5.17
2022-12-18T14:22:02.113Z,-5.18
2022-12-18T14:24:31.794Z,-5.19
2022-12-18T14:27:20.918Z,-5.21
2022-12-18T14:29:49.647Z,-5.22
2022-12-18T14:32:21.302Z,-5.25
2022-12-18T14:34:58.441Z,-5.26
2022-12-18T14:37:29.178Z,-5.26
2022-12-18T14:46:31.655Z,-5.24
2022-12-18T14:49:05.873Z,-5.26
2022-12-18T14:51:35.999Z,-5.32
2022-12-18T14:54:11.155Z,-5.40
2022-12-18T14:56:47.498Z,-5.49
2022-12-18T14:59:25.114Z,-5.59
2022-12-18T15:02:16.988Z,-5.60
2022-12-18T15:04:46.844Z,-5.60
2022-12-18T15:07:21.565Z,-5.60
2022-12-18T15:10:14.381Z,-5.60
2022-12-18T15:12:49.602Z,-5.60
2022-12-18T15:15:46.043Z,-5.60
2022-12-18T15:18:42.975Z,-5.61
2022-12-18T15:21:17.669Z,-5.62
2022-12-18T15:23:46.287Z,-5.65
2022-12-18T15:26:19.790Z,-5.65
2022-12-18T15:28:51.565Z,-5.65
2022-12-18T15:31:36.317Z,-5.66
2022-12-18T15:34:15.204Z,-5.64
2022-12-18T15:36:43.859Z,-5.61
2022-12-18T15:39:14.400Z,-5.59
2022-12-18T15:42:02.890Z,-5.55
2022-12-18T15:44:32.413Z,-5.55
2022-12-18T15:47:01.536Z,-5.56
2022-12-18T15:49:31.036Z,-5.59
2022-12-18T15:52:03.949Z,-5.62
2022-12-18T15:54:51.734Z,-5.65
2022-12-18T15:57:26.064Z,-5.67
2022-12-18T15:59:59.604Z,-5.66
2022-12-18T16:02:29.872Z,-5.68
2022-12-18T16:04:58.839Z,-5.74
2022-12-18T16:07:30.534Z,-5.76
2022-12-18T16:10:01.634Z,-5.77
2022-12-18T16:12:32.104Z,-5.80
2022-12-18T16:15:00.655Z,-5.82
2022-12-18T16:17:29.414Z,-5.85
2022-12-18T16:19:58.144Z,-5.87
2022-12-18T16:22:29.462Z,-5.87
2022-12-18T16:24:59.034Z,-5.85
2022-12-18T16:27:27.546Z,-5.83
2022-12-18T16:29:56.154Z,-5.83
2022-12-18T16:32:24.785Z,-5.86
2022-12-18T16:34:53.639Z,-5.90
2022-12-18T16:37:22.539Z,-5.90
2022-12-18T16:39:50.941Z,-5.89
2022-12-18T16:42:21.581Z,-5.88
2022-12-18T16:44:51.042Z,-5.88
2022-12-18T16:47:20.099Z,-5.92
2022-12-18T16:49:51.971Z,-5.95
2022-12-18T16:52:21.123Z,-5.99
2022-12-18T16:54:49.657Z,-6.03
2022-12-18T16:57:21.256Z,-6.05
2022-12-18T16:59:54.313Z,-6.09
2022-12-18T17:02:25.457Z,-6.13
2022-12-18T17:04:57.547Z,-6.15
2022-12-18T17:07:27.969Z,-6.16
2022-12-18T17:09:57.129Z,-6.16
2022-12-18T17:12:27.018Z,-6.17
2022-12-18T17:14:55.465Z,-6.21
2022-12-18T17:17:24.281Z,-6.25
2022-12-18T17:19:53.155Z,-6.29
2022-12-18T17:22:23.564Z,-6.32
2022-12-18T17:24:52.229Z,-6.32
2022-12-18T17:27:20.761Z,-6.29
2022-12-18T17:29:49.367Z,-6.28
2022-12-18T17:32:18.428Z,-6.31
2022-12-18T17:34:47.439Z,-6.32
2022-12-18T17:37:16.061Z,-6.36
2022-12-18T17:39:44.845Z,-6.41
2022-12-18T17:42:15.935Z,-6.41
2022-12-18T17:44:45.597Z,-6.40
2022-12-18T17:47:15.438Z,-6.35
2022-12-18T17:49:44.382Z,-6.34
2022-12-18T17:52:13.874Z,-6.32
2022-12-18T17:54:44.225Z,-6.31
2022-12-18T17:57:12.894Z,-6.37
2022-12-18T17:59:41.889Z,-6.41
